KAEX/AEX METAR and TAF weather

Enter ICAO airport designator
Station Type Date Time Source
KAEX METAR 2020/07/14 22:53 UTC NOAA

KAEX 142253Z 19006KT 9SM CLR 33/25 A2991 RMK AO2 SLP130 T03280250


Station Type Date Time Source
KAEX Decoded METAR 2020/07/14 22:53 UTC NOAA

ALEXANDRIA INTERNATIONAL AIRPORT, LA, United States (KAEX) 31-33N 092-56W 27M
Jul 14, 2020 - 06:53 PM EDT / 2020.07.14 2253 UTC
Wind: from the S (190 degrees) at 7 MPH (6 KT):0
Visibility: 9 mile(s):0
Sky conditions: clear
Temperature: 91.0 F (32.8 C)
Heat index: 104.0 F (40.0 C):1
Dew Point: 77.0 F (25.0 C)
Relative Humidity: 63%
Pressure (altimeter): 29.91 in. Hg (1012 hPa)
ob: KAEX 142253Z 19006KT 9SM CLR 33/25 A2991 RMK AO2 SLP130 T03280250
cycle: 23

Station Type Date Time Source
KAEX TAF 2020/07/14 18:30 UTC NOAA

TAF KAEX 141727Z 1418/1518 18006KT P6SM FEW028
FM150200 VRB05KT P6SM SCT200
TEMPO 1510/1514 BKN015

Example: see airport list